sensor_id;sensor_type;location;lat;lon;timestamp;pressure;altitude;pressure_sealevel;temperature;humidity
33280;BME280;20403;43.114;12.434;2022-08-25T00:00:19;99045.41;;;20.24;100.00
33280;BME280;20403;43.114;12.434;2022-08-25T00:02:45;99039.53;;;20.08;100.00
33280;BME280;20403;43.114;12.434;2022-08-25T00:05:10;99039.09;;;20.01;100.00
33280;BME280;20403;43.114;12.434;2022-08-25T00:07:36;99042.16;;;20.08;100.00
33280;BME280;20403;43.114;12.434;2022-08-25T00:10:01;99037.19;;;20.06;100.00
33280;BME280;20403;43.114;12.434;2022-08-25T00:12:26;99037.53;;;20.00;100.00
33280;BME280;20403;43.114;12.434;2022-08-25T00:14:52;99034.22;;;19.89;100.00
33280;BME280;20403;43.114;12.434;2022-08-25T00:17:17;99036.16;;;19.83;100.00
33280;BME280;20403;43.114;12.434;2022-08-25T00:19:43;99032.22;;;19.81;100.00
33280;BME280;20403;43.114;12.434;2022-08-25T00:22:08;99033.56;;;19.78;100.00
33280;BME280;20403;43.114;12.434;2022-08-25T00:24:34;99040.31;;;19.65;100.00
33280;BME280;20403;43.114;12.434;2022-08-25T00:26:59;99032.38;;;19.65;100.00
33280;BME280;20403;43.114;12.434;2022-08-25T00:29:26;99039.63;;;19.55;100.00
33280;BME280;20403;43.114;12.434;2022-08-25T00:31:51;99028.84;;;19.51;100.00
33280;BME280;20403;43.114;12.434;2022-08-25T00:34:19;99033.34;;;19.50;100.00
33280;BME280;20403;43.114;12.434;2022-08-25T00:36:44;99037.34;;;19.48;100.00
33280;BME280;20403;43.114;12.434;2022-08-25T00:39:11;99027.31;;;19.45;100.00
33280;BME280;20403;43.114;12.434;2022-08-25T00:41:38;99025.41;;;19.50;100.00
33280;BME280;20403;43.114;12.434;2022-08-25T00:44:05;99025.06;;;19.33;100.00
33280;BME280;20403;43.114;12.434;2022-08-25T00:46:32;99025.00;;;19.38;100.00
33280;BME280;20403;43.114;12.434;2022-08-25T00:48:59;99028.03;;;19.26;100.00
33280;BME280;20403;43.114;12.434;2022-08-25T00:51:31;99027.69;;;19.33;100.00
33280;BME280;20403;43.114;12.434;2022-08-25T00:53:57;99020.41;;;19.25;100.00
33280;BME280;20403;43.114;12.434;2022-08-25T00:56:23;99028.28;;;19.30;100.00
33280;BME280;20403;43.114;12.434;2022-08-25T00:58:49;99025.50;;;19.16;100.00
33280;BME280;20403;43.114;12.434;2022-08-25T01:01:15;99031.31;;;19.13;100.00
33280;BME280;20403;43.114;12.434;2022-08-25T01:03:40;99033.25;;;19.07;100.00
33280;BME280;20403;43.114;12.434;2022-08-25T01:06:05;99033.25;;;19.07;100.00
33280;BME280;20403;43.114;12.434;2022-08-25T01:08:31;99036.41;;;19.09;100.00
33280;BME280;20403;43.114;12.434;2022-08-25T01:10:57;99029.53;;;19.08;100.00
33280;BME280;20403;43.114;12.434;2022-08-25T01:13:25;99029.91;;;18.97;100.00
33280;BME280;20403;43.114;12.434;2022-08-25T01:15:53;99029.38;;;19.00;100.00
33280;BME280;20403;43.114;12.434;2022-08-25T01:18:18;99021.69;;;18.98;100.00
33280;BME280;20403;43.114;12.434;2022-08-25T01:20:47;99020.22;;;18.87;100.00
33280;BME280;20403;43.114;12.434;2022-08-25T01:23:13;99028.31;;;18.61;100.00
33280;BME280;20403;43.114;12.434;2022-08-25T01:25:42;99025.56;;;18.82;100.00
33280;BME280;20403;43.114;12.434;2022-08-25T01:28:10;99018.41;;;18.82;100.00
33280;BME280;20403;43.114;12.434;2022-08-25T01:30:35;99027.94;;;18.78;100.00
33280;BME280;20403;43.114;12.434;2022-08-25T01:33:02;99023.69;;;18.82;100.00
33280;BME280;20403;43.114;12.434;2022-08-25T01:35:28;99028.25;;;18.77;100.00
33280;BME280;20403;43.114;12.434;2022-08-25T01:37:53;99027.69;;;18.75;100.00
33280;BME280;20403;43.114;12.434;2022-08-25T01:40:19;99033.22;;;18.78;100.00
33280;BME280;20403;43.114;12.434;2022-08-25T01:42:57;99032.19;;;18.79;100.00
33280;BME280;20403;43.114;12.434;2022-08-25T01:45:26;99027.50;;;18.66;100.00
33280;BME280;20403;43.114;12.434;2022-08-25T01:47:51;99040.38;;;18.78;100.00
33280;BME280;20403;43.114;12.434;2022-08-25T01:50:17;99033.53;;;18.77;100.00
33280;BME280;20403;43.114;12.434;2022-08-25T01:52:49;99023.97;;;18.76;100.00
33280;BME280;20403;43.114;12.434;2022-08-25T01:55:14;99022.16;;;18.71;100.00
33280;BME280;20403;43.114;12.434;2022-08-25T01:57:40;99019.88;;;18.59;100.00
33280;BME280;20403;43.114;12.434;2022-08-25T02:00:06;99022.47;;;18.64;100.00
33280;BME280;20403;43.114;12.434;2022-08-25T02:02:33;99012.69;;;18.70;100.00
33280;BME280;20403;43.114;12.434;2022-08-25T02:04:59;99015.63;;;18.63;100.00
33280;BME280;20403;43.114;12.434;2022-08-25T02:07:24;99008.50;;;18.64;100.00
33280;BME280;20403;43.114;12.434;2022-08-25T02:09:49;99007.75;;;18.58;100.00
33280;BME280;20403;43.114;12.434;2022-08-25T02:12:14;99009.06;;;18.61;100.00
33280;BME280;20403;43.114;12.434;2022-08-25T02:14:39;99002.78;;;18.52;100.00
33280;BME280;20403;43.114;12.434;2022-08-25T02:17:05;99007.31;;;18.46;100.00
33280;BME280;20403;43.114;12.434;2022-08-25T02:19:30;99008.28;;;18.55;100.00
33280;BME280;20403;43.114;12.434;2022-08-25T02:21:56;99011.06;;;18.40;100.00
33280;BME280;20403;43.114;12.434;2022-08-25T02:24:22;99009.94;;;18.46;100.00
33280;BME280;20403;43.114;12.434;2022-08-25T02:26:47;99012.41;;;18.37;100.00
33280;BME280;20403;43.114;12.434;2022-08-25T02:29:14;99010.59;;;18.33;100.00
33280;BME280;20403;43.114;12.434;2022-08-25T02:31:41;99015.34;;;18.31;100.00
33280;BME280;20403;43.114;12.434;2022-08-25T02:34:07;99014.03;;;18.28;100.00
33280;BME280;20403;43.114;12.434;2022-08-25T02:36:33;99016.91;;;18.32;100.00
33280;BME280;20403;43.114;12.434;2022-08-25T02:38:58;99011.63;;;18.32;100.00
33280;BME280;20403;43.114;12.434;2022-08-25T02:41:25;99010.75;;;18.41;100.00
33280;BME280;20403;43.114;12.434;2022-08-25T02:43:51;99007.13;;;18.32;100.00
33280;BME280;20403;43.114;12.434;2022-08-25T02:46:18;99012.75;;;18.25;100.00
33280;BME280;20403;43.114;12.434;2022-08-25T02:48:44;99011.94;;;18.25;100.00
33280;BME280;20403;43.114;12.434;2022-08-25T02:51:10;99014.03;;;18.28;100.00
33280;BME280;20403;43.114;12.434;2022-08-25T02:53:36;99011.97;;;18.20;100.00
33280;BME280;20403;43.114;12.434;2022-08-25T02:56:03;99007.25;;;18.17;100.00
33280;BME280;20403;43.114;12.434;2022-08-25T02:58:28;99008.81;;;18.18;100.00
33280;BME280;20403;43.114;12.434;2022-08-25T03:00:54;99011.50;;;18.13;100.00
33280;BME280;20403;43.114;12.434;2022-08-25T03:03:20;99009.94;;;18.12;100.00
33280;BME280;20403;43.114;12.434;2022-08-25T03:05:45;99002.28;;;18.10;100.00
33280;BME280;20403;43.114;12.434;2022-08-25T03:08:11;99007.06;;;18.03;100.00
33280;BME280;20403;43.114;12.434;2022-08-25T03:10:37;99011.25;;;18.09;100.00
33280;BME280;20403;43.114;12.434;2022-08-25T03:13:02;99012.84;;;18.10;100.00
33280;BME280;20403;43.114;12.434;2022-08-25T03:15:27;99014.13;;;18.13;100.00
33280;BME280;20403;43.114;12.434;2022-08-25T03:17:53;99011.75;;;18.11;100.00
33280;BME280;20403;43.114;12.434;2022-08-25T03:20:23;99002.78;;;18.12;100.00
33280;BME280;20403;43.114;12.434;2022-08-25T03:22:48;99011.25;;;18.09;100.00
33280;BME280;20403;43.114;12.434;2022-08-25T03:25:14;99002.84;;;18.07;100.00
33280;BME280;20403;43.114;12.434;2022-08-25T03:27:58;99006.56;;;18.01;100.00
33280;BME280;20403;43.114;12.434;2022-08-25T03:30:23;99004.69;;;18.01;100.00
33280;BME280;20403;43.114;12.434;2022-08-25T03:32:49;99001.28;;;18.01;100.00
33280;BME280;20403;43.114;12.434;2022-08-25T03:35:15;99004.66;;;18.06;100.00
33280;BME280;20403;43.114;12.434;2022-08-25T03:37:40;99002.31;;;18.05;100.00
33280;BME280;20403;43.114;12.434;2022-08-25T03:40:06;99006.78;;;18.10;100.00
33280;BME280;20403;43.114;12.434;2022-08-25T03:42:33;99013.69;;;18.00;100.00
33280;BME280;20403;43.114;12.434;2022-08-25T03:44:58;99009.94;;;18.12;100.00
33280;BME280;20403;43.114;12.434;2022-08-25T03:47:23;99012.88;;;18.05;100.00
33280;BME280;20403;43.114;12.434;2022-08-25T03:49:50;99012.31;;;18.08;100.00
33280;BME280;20403;43.114;12.434;2022-08-25T03:52:16;99017.06;;;18.06;100.00
33280;BME280;20403;43.114;12.434;2022-08-25T03:54:42;99013.97;;;17.94;100.00
33280;BME280;20403;43.114;12.434;2022-08-25T03:57:07;99015.84;;;17.93;100.00
33280;BME280;20403;43.114;12.434;2022-08-25T03:59:33;99013.75;;;17.85;100.00
33280;BME280;20403;43.114;12.434;2022-08-25T04:01:59;99012.16;;;17.79;100.00
33280;BME280;20403;43.114;12.434;2022-08-25T04:04:25;99008.47;;;17.85;100.00
33280;BME280;20403;43.114;12.434;2022-08-25T04:06:50;99010.03;;;17.86;100.00
33280;BME280;20403;43.114;12.434;2022-08-25T04:09:16;99013.50;;;17.87;100.00
33280;BME280;20403;43.114;12.434;2022-08-25T04:11:42;99016.31;;;17.95;100.00
33280;BME280;20403;43.114;12.434;2022-08-25T04:14:07;99019.03;;;17.85;100.00
33280;BME280;20403;43.114;12.434;2022-08-25T04:19:26;99020.09;;;17.84;100.00
33280;BME280;20403;43.114;12.434;2022-08-25T04:21:51;99026.94;;;17.85;100.00
33280;BME280;20403;43.114;12.434;2022-08-25T04:24:16;99016.66;;;17.78;100.00
33280;BME280;20403;43.114;12.434;2022-08-25T04:26:46;99027.75;;;17.75;100.00
33280;BME280;20403;43.114;12.434;2022-08-25T04:29:12;99028.78;;;17.79;100.00
33280;BME280;20403;43.114;12.434;2022-08-25T04:31:39;99026.94;;;17.80;100.00
33280;BME280;20403;43.114;12.434;2022-08-25T04:34:05;99018.75;;;17.76;100.00
33280;BME280;20403;43.114;12.434;2022-08-25T04:36:31;99026.19;;;17.69;100.00
33280;BME280;20403;43.114;12.434;2022-08-25T04:38:57;99028.59;;;17.66;100.00
33280;BME280;20403;43.114;12.434;2022-08-25T04:41:22;99027.25;;;17.68;100.00
33280;BME280;20403;43.114;12.434;2022-08-25T04:43:48;99028.28;;;17.72;100.00
33280;BME280;20403;43.114;12.434;2022-08-25T04:46:15;99023.03;;;17.72;100.00
33280;BME280;20403;43.114;12.434;2022-08-25T04:48:41;99025.66;;;17.67;100.00
33280;BME280;20403;43.114;12.434;2022-08-25T04:51:07;99025.66;;;17.67;100.00
33280;BME280;20403;43.114;12.434;2022-08-25T04:53:33;99024.09;;;17.66;100.00
33280;BME280;20403;43.114;12.434;2022-08-25T04:55:58;99029.34;;;17.71;100.00
33280;BME280;20403;43.114;12.434;2022-08-25T04:58:24;99022.44;;;17.85;100.00
33280;BME280;20403;43.114;12.434;2022-08-25T05:00:49;99024.00;;;17.92;100.00
33280;BME280;20403;43.114;12.434;2022-08-25T05:03:15;99015.81;;;17.98;100.00
33280;BME280;20403;43.114;12.434;2022-08-25T05:05:41;99019.72;;;18.06;100.00
33280;BME280;20403;43.114;12.434;2022-08-25T05:08:06;99019.69;;;18.11;100.00
33280;BME280;20403;43.114;12.434;2022-08-25T05:10:32;99024.97;;;18.06;100.00
33280;BME280;20403;43.114;12.434;2022-08-25T05:12:57;99018.06;;;18.15;100.00
33280;BME280;20403;43.114;12.434;2022-08-25T05:15:24;99015.91;;;18.22;100.00
33280;BME280;20403;43.114;12.434;2022-08-25T05:18:08;99014.56;;;18.30;100.00
33280;BME280;20403;43.114;12.434;2022-08-25T05:20:37;99011.03;;;18.45;100.00
33280;BME280;20403;43.114;12.434;2022-08-25T05:23:02;99014.59;;;18.59;100.00
33280;BME280;20403;43.114;12.434;2022-08-25T05:25:28;99016.94;;;18.66;100.00
33280;BME280;20403;43.114;12.434;2022-08-25T05:27:53;99016.28;;;18.84;100.00
33280;BME280;20403;43.114;12.434;2022-08-25T05:30:18;99012.22;;;18.97;100.00
33280;BME280;20403;43.114;12.434;2022-08-25T05:32:44;99015.25;;;19.09;100.00
33280;BME280;20403;43.114;12.434;2022-08-25T05:35:09;99007.00;;;19.16;100.00
33280;BME280;20403;43.114;12.434;2022-08-25T05:37:34;99003.50;;;19.21;100.00
33280;BME280;20403;43.114;12.434;2022-08-25T05:40:01;98994.69;;;19.30;100.00
33280;BME280;20403;43.114;12.434;2022-08-25T05:42:27;98996.84;;;19.47;100.00
33280;BME280;20403;43.114;12.434;2022-08-25T05:44:53;99000.69;;;19.60;100.00
33280;BME280;20403;43.114;12.434;2022-08-25T05:47:19;99004.34;;;19.64;100.00
33280;BME280;20403;43.114;12.434;2022-08-25T05:49:45;98993.88;;;19.78;100.00
33280;BME280;20403;43.114;12.434;2022-08-25T05:52:10;98996.81;;;19.96;100.00
33280;BME280;20403;43.114;12.434;2022-08-25T05:54:36;98992.69;;;20.08;100.00
33280;BME280;20403;43.114;12.434;2022-08-25T05:57:01;98997.91;;;20.13;100.00
33280;BME280;20403;43.114;12.434;2022-08-25T06:02:16;99006.97;;;20.26;100.00
33280;BME280;20403;43.114;12.434;2022-08-25T06:05:00;99010.47;;;20.41;100.00
33280;BME280;20403;43.114;12.434;2022-08-25T06:07:26;99006.22;;;20.59;100.00
33280;BME280;20403;43.114;12.434;2022-08-25T06:09:51;99010.00;;;20.71;100.00
33280;BME280;20403;43.114;12.434;2022-08-25T06:12:17;99006.13;;;20.83;100.00
33280;BME280;20403;43.114;12.434;2022-08-25T06:14:45;98990.63;;;20.90;100.00
33280;BME280;20403;43.114;12.434;2022-08-25T06:17:10;98994.44;;;20.97;100.00
33280;BME280;20403;43.114;12.434;2022-08-25T06:19:35;98998.78;;;21.07;100.00
33280;BME280;20403;43.114;12.434;2022-08-25T06:22:01;98991.03;;;21.25;100.00
33280;BME280;20403;43.114;12.434;2022-08-25T06:24:27;98992.06;;;21.43;100.00
33280;BME280;20403;43.114;12.434;2022-08-25T06:26:52;98993.03;;;21.60;100.00
33280;BME280;20403;43.114;12.434;2022-08-25T06:29:18;98988.84;;;21.82;100.00
33280;BME280;20403;43.114;12.434;2022-08-25T06:31:45;98979.47;;;21.98;100.00
33280;BME280;20403;43.114;12.434;2022-08-25T06:34:11;98989.63;;;22.19;100.00
33280;BME280;20403;43.114;12.434;2022-08-25T06:36:48;98980.00;;;22.23;100.00
33280;BME280;20403;43.114;12.434;2022-08-25T06:39:15;98985.84;;;22.34;100.00
33280;BME280;20403;43.114;12.434;2022-08-25T06:41:40;98978.59;;;22.48;100.00
33280;BME280;20403;43.114;12.434;2022-08-25T06:44:06;98981.56;;;22.69;100.00
33280;BME280;20403;43.114;12.434;2022-08-25T06:46:31;98978.19;;;22.86;100.00
33280;BME280;20403;43.114;12.434;2022-08-25T06:48:56;98984.28;;;23.09;100.00
33280;BME280;20403;43.114;12.434;2022-08-25T06:51:22;98974.44;;;23.18;100.00
33280;BME280;20403;43.114;12.434;2022-08-25T06:53:48;98975.59;;;23.35;100.00
33280;BME280;20403;43.114;12.434;2022-08-25T06:56:14;98978.44;;;23.47;100.00
33280;BME280;20403;43.114;12.434;2022-08-25T06:58:40;98973.16;;;23.64;100.00
33280;BME280;20403;43.114;12.434;2022-08-25T07:01:13;98966.13;;;23.77;100.00
33280;BME280;20403;43.114;12.434;2022-08-25T07:03:38;98962.84;;;23.98;100.00
33280;BME280;20403;43.114;12.434;2022-08-25T07:06:04;98975.22;;;24.20;100.00
33280;BME280;20403;43.114;12.434;2022-08-25T07:08:29;98974.59;;;24.40;100.00
33280;BME280;20403;43.114;12.434;2022-08-25T07:10:55;98969.41;;;24.61;100.00
33280;BME280;20403;43.114;12.434;2022-08-25T07:13:20;98969.19;;;24.75;100.00
33280;BME280;20403;43.114;12.434;2022-08-25T07:15:45;98968.53;;;24.87;100.00
33280;BME280;20403;43.114;12.434;2022-08-25T07:18:10;98967.97;;;25.02;100.00
33280;BME280;20403;43.114;12.434;2022-08-25T07:20:37;98960.56;;;25.16;100.00
33280;BME280;20403;43.114;12.434;2022-08-25T07:23:02;98960.66;;;25.29;100.00
33280;BME280;20403;43.114;12.434;2022-08-25T07:25:28;98968.56;;;25.46;100.00
33280;BME280;20403;43.114;12.434;2022-08-25T07:27:54;98968.66;;;25.58;100.00
33280;BME280;20403;43.114;12.434;2022-08-25T07:30:19;98969.97;;;25.73;100.00
33280;BME280;20403;43.114;12.434;2022-08-25T07:32:45;98968.44;;;25.93;100.00
33280;BME280;20403;43.114;12.434;2022-08-25T07:35:10;98958.50;;;26.15;100.00
33280;BME280;20403;43.114;12.434;2022-08-25T07:37:46;98957.75;;;26.27;100.00
33280;BME280;20403;43.114;12.434;2022-08-25T07:40:14;98957.22;;;26.33;100.00
33280;BME280;20403;43.114;12.434;2022-08-25T07:42:40;98950.91;;;26.50;100.00
33280;BME280;20403;43.114;12.434;2022-08-25T07:45:06;98947.59;;;26.53;100.00
33280;BME280;20403;43.114;12.434;2022-08-25T07:47:32;98947.13;;;26.51;100.00
33280;BME280;20403;43.114;12.434;2022-08-25T07:49:57;98948.41;;;26.66;100.00
33280;BME280;20403;43.114;12.434;2022-08-25T07:52:22;98947.84;;;26.73;100.00
33280;BME280;20403;43.114;12.434;2022-08-25T07:54:48;98949.66;;;26.81;100.00
33280;BME280;20403;43.114;12.434;2022-08-25T07:57:13;98943.75;;;27.00;100.00
33280;BME280;20403;43.114;12.434;2022-08-25T07:59:39;98945.31;;;27.13;100.00
33280;BME280;20403;43.114;12.434;2022-08-25T08:02:05;98941.56;;;27.27;100.00
33280;BME280;20403;43.114;12.434;2022-08-25T08:04:31;98940.88;;;27.30;100.00
33280;BME280;20403;43.114;12.434;2022-08-25T08:06:56;98938.28;;;27.45;100.00
33280;BME280;20403;43.114;12.434;2022-08-25T08:09:21;98936.38;;;27.46;100.00
33280;BME280;20403;43.114;12.434;2022-08-25T08:11:47;98938.13;;;27.54;100.00
33280;BME280;20403;43.114;12.434;2022-08-25T08:14:12;98928.19;;;27.67;100.00
33280;BME280;20403;43.114;12.434;2022-08-25T08:16:37;98928.38;;;27.74;100.00
33280;BME280;20403;43.114;12.434;2022-08-25T08:19:03;98926.91;;;27.89;100.00
33280;BME280;20403;43.114;12.434;2022-08-25T08:21:33;98924.22;;;28.17;100.00
33280;BME280;20403;43.114;12.434;2022-08-25T08:24:00;98930.81;;;28.36;100.00
33280;BME280;20403;43.114;12.434;2022-08-25T08:26:25;98934.34;;;28.40;100.00
33280;BME280;20403;43.114;12.434;2022-08-25T08:28:52;98929.59;;;28.33;100.00
33280;BME280;20403;43.114;12.434;2022-08-25T08:31:21;98929.59;;;28.33;100.00
33280;BME280;20403;43.114;12.434;2022-08-25T08:33:47;98931.09;;;28.46;100.00
33280;BME280;20403;43.114;12.434;2022-08-25T08:36:13;98927.81;;;28.53;100.00
33280;BME280;20403;43.114;12.434;2022-08-25T08:38:39;98924.38;;;28.68;100.00
33280;BME280;20403;43.114;12.434;2022-08-25T08:43:51;98918.34;;;28.43;100.00
33280;BME280;20403;43.114;12.434;2022-08-25T08:46:18;98918.47;;;28.63;100.00
33280;BME280;20403;43.114;12.434;2022-08-25T08:54:51;98905.56;;;29.16;100.00
33280;BME280;20403;43.114;12.434;2022-08-25T08:57:21;98897.03;;;29.30;93.75
33280;BME280;20403;43.114;12.434;2022-08-25T08:59:51;98902.69;;;29.44;87.97
33280;BME280;20403;43.114;12.434;2022-08-25T09:02:41;98890.66;;;29.38;92.38
33280;BME280;20403;43.114;12.434;2022-08-25T09:05:07;98895.69;;;29.59;93.80
33280;BME280;20403;43.114;12.434;2022-08-25T09:07:36;98897.59;;;29.78;96.07
33280;BME280;20403;43.114;12.434;2022-08-25T09:10:03;98894.28;;;29.85;80.98
33280;BME280;20403;43.114;12.434;2022-08-25T09:20:22;98891.81;;;29.76;79.96
33280;BME280;20403;43.114;12.434;2022-08-25T09:30:54;98891.34;;;30.59;67.41
33280;BME280;20403;43.114;12.434;2022-08-25T09:33:23;98883.53;;;30.50;71.99
33280;BME280;20403;43.114;12.434;2022-08-25T09:35:49;98881.75;;;30.58;69.72
33280;BME280;20403;43.114;12.434;2022-08-25T09:38:15;98887.28;;;30.92;72.04
33280;BME280;20403;43.114;12.434;2022-08-25T09:40:45;98883.81;;;31.22;72.44
33280;BME280;20403;43.114;12.434;2022-08-25T09:43:23;98877.06;;;31.35;67.49
33280;BME280;20403;43.114;12.434;2022-08-25T09:48:41;98870.47;;;31.59;59.68
33280;BME280;20403;43.114;12.434;2022-08-25T09:51:26;98870.69;;;31.47;59.03
33280;BME280;20403;43.114;12.434;2022-08-25T09:56:18;98885.13;;;31.61;57.32
33280;BME280;20403;43.114;12.434;2022-08-25T09:58:43;98866.81;;;31.78;60.15
33280;BME280;20403;43.114;12.434;2022-08-25T10:04:11;98857.78;;;32.45;55.23
33280;BME280;20403;43.114;12.434;2022-08-25T10:06:43;98863.66;;;32.54;57.09
33280;BME280;20403;43.114;12.434;2022-08-25T10:09:09;98860.91;;;32.47;56.17
33280;BME280;20403;43.114;12.434;2022-08-25T10:11:42;98855.94;;;32.53;51.38
33280;BME280;20403;43.114;12.434;2022-08-25T10:16:43;98856.16;;;32.33;50.82
33280;BME280;20403;43.114;12.434;2022-08-25T10:19:11;98851.16;;;32.35;54.58
33280;BME280;20403;43.114;12.434;2022-08-25T10:21:38;98849.69;;;32.45;52.86
33280;BME280;20403;43.114;12.434;2022-08-25T10:24:04;98854.50;;;32.70;57.51
33280;BME280;20403;43.114;12.434;2022-08-25T10:36:48;98842.13;;;33.27;51.53
33280;BME280;20403;43.114;12.434;2022-08-25T10:39:32;98850.94;;;33.14;49.26
33280;BME280;20403;43.114;12.434;2022-08-25T10:49:47;98838.84;;;32.93;44.89
33280;BME280;20403;43.114;12.434;2022-08-25T10:52:19;98837.84;;;33.23;48.29
33280;BME280;20403;43.114;12.434;2022-08-25T10:55:00;98834.41;;;33.40;45.56
33280;BME280;20403;43.114;12.434;2022-08-25T10:57:39;98828.75;;;33.74;45.85
33280;BME280;20403;43.114;12.434;2022-08-25T11:00:06;98833.75;;;33.72;43.93
33280;BME280;20403;43.114;12.434;2022-08-25T11:02:51;98828.00;;;33.95;44.73
33280;BME280;20403;43.114;12.434;2022-08-25T11:08:04;98819.84;;;33.70;41.90
33280;BME280;20403;43.114;12.434;2022-08-25T11:10:47;98821.00;;;33.69;42.24
33280;BME280;20403;43.114;12.434;2022-08-25T11:13:19;98826.03;;;33.92;42.29
33280;BME280;20403;43.114;12.434;2022-08-25T11:15:50;98825.66;;;34.01;41.83
33280;BME280;20403;43.114;12.434;2022-08-25T11:18:17;98817.97;;;34.17;41.34
33280;BME280;20403;43.114;12.434;2022-08-25T11:20:45;98822.56;;;34.06;41.47
33280;BME280;20403;43.114;12.434;2022-08-25T11:23:35;98822.97;;;34.01;43.69
33280;BME280;20403;43.114;12.434;2022-08-25T11:26:00;98814.47;;;34.38;43.64
33280;BME280;20403;43.114;12.434;2022-08-25T11:30:54;98808.69;;;34.36;43.20
33280;BME280;20403;43.114;12.434;2022-08-25T11:33:20;98806.75;;;34.19;42.26
33280;BME280;20403;43.114;12.434;2022-08-25T11:51:53;98804.06;;;34.12;40.63
33280;BME280;20403;43.114;12.434;2022-08-25T11:54:20;98799.81;;;34.14;39.74
33280;BME280;20403;43.114;12.434;2022-08-25T11:56:56;98809.06;;;34.45;41.08
33280;BME280;20403;43.114;12.434;2022-08-25T12:02:06;98802.03;;;34.87;39.80
33280;BME280;20403;43.114;12.434;2022-08-25T12:04:39;98795.41;;;34.96;39.83
33280;BME280;20403;43.114;12.434;2022-08-25T12:12:30;98790.03;;;34.81;38.80
33280;BME280;20403;43.114;12.434;2022-08-25T12:14:54;98788.38;;;35.05;39.22
33280;BME280;20403;43.114;12.434;2022-08-25T12:17:21;98786.09;;;35.04;39.43
33280;BME280;20403;43.114;12.434;2022-08-25T12:19:49;98789.53;;;35.15;38.44
33280;BME280;20403;43.114;12.434;2022-08-25T12:35:14;98776.34;;;35.24;42.10
33280;BME280;20403;43.114;12.434;2022-08-25T12:37:56;98769.72;;;35.29;41.04
33280;BME280;20403;43.114;12.434;2022-08-25T12:40:27;98771.97;;;35.41;40.07
33280;BME280;20403;43.114;12.434;2022-08-25T12:43:01;98770.19;;;35.13;39.26
33280;BME280;20403;43.114;12.434;2022-08-25T12:45:32;98762.84;;;35.06;40.61
33280;BME280;20403;43.114;12.434;2022-08-25T12:50:43;98756.66;;;35.06;41.91
33280;BME280;20403;43.114;12.434;2022-08-25T12:53:17;98759.31;;;35.17;42.55
33280;BME280;20403;43.114;12.434;2022-08-25T12:55:56;98760.31;;;34.52;42.60
33280;BME280;20403;43.114;12.434;2022-08-25T12:58:26;98767.28;;;33.78;42.69
33280;BME280;20403;43.114;12.434;2022-08-25T13:06:25;98761.50;;;33.65;43.97
33280;BME280;20403;43.114;12.434;2022-08-25T13:11:24;98748.75;;;34.02;44.65
33280;BME280;20403;43.114;12.434;2022-08-25T13:16:26;98752.19;;;34.42;43.86
33280;BME280;20403;43.114;12.434;2022-08-25T13:18:52;98752.19;;;34.42;44.01
33280;BME280;20403;43.114;12.434;2022-08-25T13:21:34;98749.84;;;34.51;44.04
33280;BME280;20403;43.114;12.434;2022-08-25T13:24:00;98746.41;;;34.43;42.30
33280;BME280;20403;43.114;12.434;2022-08-25T13:26:28;98752.16;;;34.67;42.72
33280;BME280;20403;43.114;12.434;2022-08-25T13:31:22;98749.09;;;34.47;43.17
33280;BME280;20403;43.114;12.434;2022-08-25T13:34:01;98744.88;;;34.03;42.43
33280;BME280;20403;43.114;12.434;2022-08-25T13:36:29;98739.09;;;34.15;43.13
33280;BME280;20403;43.114;12.434;2022-08-25T13:39:15;98738.69;;;33.99;43.86
33280;BME280;20403;43.114;12.434;2022-08-25T13:41:46;98739.47;;;33.92;44.21
33280;BME280;20403;43.114;12.434;2022-08-25T13:44:12;98731.75;;;33.76;44.77
33280;BME280;20403;43.114;12.434;2022-08-25T13:46:38;98735.56;;;33.50;45.33
33280;BME280;20403;43.114;12.434;2022-08-25T13:49:04;98731.31;;;33.45;45.97
33280;BME280;20403;43.114;12.434;2022-08-25T13:51:30;98724.75;;;33.36;44.13
33280;BME280;20403;43.114;12.434;2022-08-25T13:53:59;98730.91;;;33.33;44.44
33280;BME280;20403;43.114;12.434;2022-08-25T13:56:36;98722.78;;;33.15;44.98
33280;BME280;20403;43.114;12.434;2022-08-25T13:59:03;98724.72;;;33.25;48.33
33280;BME280;20403;43.114;12.434;2022-08-25T14:01:42;98726.66;;;33.32;45.75
33280;BME280;20403;43.114;12.434;2022-08-25T14:04:25;98722.03;;;33.32;47.55
33280;BME280;20403;43.114;12.434;2022-08-25T14:12:44;98724.19;;;32.87;45.88
33280;BME280;20403;43.114;12.434;2022-08-25T14:17:42;98719.50;;;32.03;49.48
33280;BME280;20403;43.114;12.434;2022-08-25T14:20:21;98721.66;;;31.91;49.13
33280;BME280;20403;43.114;12.434;2022-08-25T14:22:50;98719.03;;;31.98;51.73
33280;BME280;20403;43.114;12.434;2022-08-25T14:25:17;98716.03;;;32.03;52.16
33280;BME280;20403;43.114;12.434;2022-08-25T14:27:43;98715.25;;;32.06;49.95
33280;BME280;20403;43.114;12.434;2022-08-25T14:30:09;98710.91;;;31.94;49.76
33280;BME280;20403;43.114;12.434;2022-08-25T14:32:34;98709.06;;;32.02;49.90
33280;BME280;20403;43.114;12.434;2022-08-25T14:35:00;98705.47;;;31.87;47.56
33280;BME280;20403;43.114;12.434;2022-08-25T14:37:26;98713.56;;;31.91;50.98
33280;BME280;20403;43.114;12.434;2022-08-25T14:39:51;98708.56;;;31.89;51.12
33280;BME280;20403;43.114;12.434;2022-08-25T14:42:18;98710.59;;;31.96;49.25
33280;BME280;20403;43.114;12.434;2022-08-25T14:44:44;98712.78;;;31.87;51.72
33280;BME280;20403;43.114;12.434;2022-08-25T14:47:09;98704.31;;;31.88;50.82
33280;BME280;20403;43.114;12.434;2022-08-25T14:49:36;98708.94;;;31.88;49.67